sensor_id;sensor_type;location;lat;lon;timestamp;P1;durP1;ratioP1;P2;durP2;ratioP2
21697;SDS011;11010;49.548;11.926;2022-08-21T00:01:52;9.32;;;3.70;;
21697;SDS011;11010;49.548;11.926;2022-08-21T00:04:20;8.82;;;3.85;;
21697;SDS011;11010;49.548;11.926;2022-08-21T00:06:54;10.10;;;4.40;;
21697;SDS011;11010;49.548;11.926;2022-08-21T00:09:22;9.68;;;4.15;;
21697;SDS011;11010;49.548;11.926;2022-08-21T00:11:50;8.13;;;3.47;;
21697;SDS011;11010;49.548;11.926;2022-08-21T00:14:17;8.60;;;3.63;;
21697;SDS011;11010;49.548;11.926;2022-08-21T00:16:45;8.20;;;3.38;;
21697;SDS011;11010;49.548;11.926;2022-08-21T00:19:12;8.88;;;3.47;;
21697;SDS011;11010;49.548;11.926;2022-08-21T00:21:40;8.32;;;3.50;;
21697;SDS011;11010;49.548;11.926;2022-08-21T00:24:10;9.60;;;3.30;;
21697;SDS011;11010;49.548;11.926;2022-08-21T00:26:38;8.38;;;3.30;;
21697;SDS011;11010;49.548;11.926;2022-08-21T00:29:05;7.65;;;3.00;;
21697;SDS011;11010;49.548;11.926;2022-08-21T00:31:33;9.02;;;3.08;;
21697;SDS011;11010;49.548;11.926;2022-08-21T00:34:00;7.60;;;3.10;;
21697;SDS011;11010;49.548;11.926;2022-08-21T00:36:28;8.38;;;3.15;;
21697;SDS011;11010;49.548;11.926;2022-08-21T00:38:56;7.95;;;3.00;;
21697;SDS011;11010;49.548;11.926;2022-08-21T00:41:24;8.38;;;3.08;;
21697;SDS011;11010;49.548;11.926;2022-08-21T00:44:08;6.82;;;2.67;;
21697;SDS011;11010;49.548;11.926;2022-08-21T00:46:35;7.00;;;2.65;;
21697;SDS011;11010;49.548;11.926;2022-08-21T00:49:04;7.00;;;2.92;;
21697;SDS011;11010;49.548;11.926;2022-08-21T00:51:36;8.52;;;2.42;;
21697;SDS011;11010;49.548;11.926;2022-08-21T00:54:05;7.10;;;2.63;;
21697;SDS011;11010;49.548;11.926;2022-08-21T00:56:44;6.93;;;2.60;;
21697;SDS011;11010;49.548;11.926;2022-08-21T00:59:13;7.68;;;2.90;;
21697;SDS011;11010;49.548;11.926;2022-08-21T01:01:41;8.38;;;2.65;;
21697;SDS011;11010;49.548;11.926;2022-08-21T01:04:08;6.97;;;2.40;;
21697;SDS011;11010;49.548;11.926;2022-08-21T01:06:36;6.82;;;2.40;;
21697;SDS011;11010;49.548;11.926;2022-08-21T01:09:03;6.85;;;2.33;;
21697;SDS011;11010;49.548;11.926;2022-08-21T01:11:31;7.00;;;2.67;;
21697;SDS011;11010;49.548;11.926;2022-08-21T01:13:58;6.68;;;2.35;;
21697;SDS011;11010;49.548;11.926;2022-08-21T01:16:26;7.20;;;2.72;;
21697;SDS011;11010;49.548;11.926;2022-08-21T01:18:53;7.03;;;2.40;;
21697;SDS011;11010;49.548;11.926;2022-08-21T01:21:22;7.68;;;2.63;;
21697;SDS011;11010;49.548;11.926;2022-08-21T01:23:54;7.18;;;2.65;;
21697;SDS011;11010;49.548;11.926;2022-08-21T01:26:24;6.97;;;2.47;;
21697;SDS011;11010;49.548;11.926;2022-08-21T01:31:30;7.78;;;2.75;;
21697;SDS011;11010;49.548;11.926;2022-08-21T01:33:59;6.65;;;2.40;;
21697;SDS011;11010;49.548;11.926;2022-08-21T01:36:27;7.28;;;2.53;;
21697;SDS011;11010;49.548;11.926;2022-08-21T01:38:54;8.00;;;3.00;;
21697;SDS011;11010;49.548;11.926;2022-08-21T01:41:22;8.10;;;2.95;;
21697;SDS011;11010;49.548;11.926;2022-08-21T01:43:50;7.90;;;2.70;;
21697;SDS011;11010;49.548;11.926;2022-08-21T01:46:17;7.35;;;2.75;;
21697;SDS011;11010;49.548;11.926;2022-08-21T01:48:45;7.03;;;2.40;;
21697;SDS011;11010;49.548;11.926;2022-08-21T01:51:12;6.68;;;2.30;;
21697;SDS011;11010;49.548;11.926;2022-08-21T01:53:40;6.68;;;2.40;;
21697;SDS011;11010;49.548;11.926;2022-08-21T01:56:09;7.20;;;2.00;;
21697;SDS011;11010;49.548;11.926;2022-08-21T01:58:39;7.22;;;2.10;;
21697;SDS011;11010;49.548;11.926;2022-08-21T02:01:06;8.52;;;2.42;;
21697;SDS011;11010;49.548;11.926;2022-08-21T02:03:34;6.80;;;2.10;;
21697;SDS011;11010;49.548;11.926;2022-08-21T02:06:02;8.02;;;2.60;;
21697;SDS011;11010;49.548;11.926;2022-08-21T02:08:30;6.80;;;2.40;;
21697;SDS011;11010;49.548;11.926;2022-08-21T02:10:58;6.95;;;2.35;;
21697;SDS011;11010;49.548;11.926;2022-08-21T02:13:26;6.80;;;2.30;;
21697;SDS011;11010;49.548;11.926;2022-08-21T02:15:54;5.95;;;1.95;;
21697;SDS011;11010;49.548;11.926;2022-08-21T02:18:21;7.63;;;1.92;;
21697;SDS011;11010;49.548;11.926;2022-08-21T02:20:49;6.63;;;2.33;;
21697;SDS011;11010;49.548;11.926;2022-08-21T02:23:22;6.65;;;2.00;;
21697;SDS011;11010;49.548;11.926;2022-08-21T02:26:02;6.32;;;1.85;;
21697;SDS011;11010;49.548;11.926;2022-08-21T02:28:31;5.47;;;1.60;;
21697;SDS011;11010;49.548;11.926;2022-08-21T02:30:58;6.03;;;2.00;;
21697;SDS011;11010;49.548;11.926;2022-08-21T02:33:27;5.60;;;1.75;;
21697;SDS011;11010;49.548;11.926;2022-08-21T02:35:54;6.00;;;1.80;;
21697;SDS011;11010;49.548;11.926;2022-08-21T02:38:24;5.53;;;1.50;;
21697;SDS011;11010;49.548;11.926;2022-08-21T02:40:55;6.50;;;1.50;;
21697;SDS011;11010;49.548;11.926;2022-08-21T02:43:24;8.35;;;2.00;;
21697;SDS011;11010;49.548;11.926;2022-08-21T02:45:52;6.25;;;2.00;;
21697;SDS011;11010;49.548;11.926;2022-08-21T02:48:21;5.63;;;1.90;;
21697;SDS011;11010;49.548;11.926;2022-08-21T02:50:53;6.60;;;2.08;;
21697;SDS011;11010;49.548;11.926;2022-08-21T02:53:22;6.25;;;1.90;;
21697;SDS011;11010;49.548;11.926;2022-08-21T02:55:50;6.03;;;1.95;;
21697;SDS011;11010;49.548;11.926;2022-08-21T02:58:23;6.65;;;2.35;;
21697;SDS011;11010;49.548;11.926;2022-08-21T03:00:51;8.82;;;1.85;;
21697;SDS011;11010;49.548;11.926;2022-08-21T03:03:19;7.00;;;2.30;;
21697;SDS011;11010;49.548;11.926;2022-08-21T03:05:47;6.07;;;2.00;;
21697;SDS011;11010;49.548;11.926;2022-08-21T03:08:15;7.25;;;2.13;;
21697;SDS011;11010;49.548;11.926;2022-08-21T03:10:44;7.15;;;2.17;;
21697;SDS011;11010;49.548;11.926;2022-08-21T03:13:12;6.40;;;2.10;;
21697;SDS011;11010;49.548;11.926;2022-08-21T03:15:40;7.60;;;2.60;;
21697;SDS011;11010;49.548;11.926;2022-08-21T03:18:08;7.30;;;2.40;;
21697;SDS011;11010;49.548;11.926;2022-08-21T03:20:37;7.43;;;2.28;;
21697;SDS011;11010;49.548;11.926;2022-08-21T03:23:05;6.80;;;2.08;;
21697;SDS011;11010;49.548;11.926;2022-08-21T03:25:38;8.18;;;2.50;;
21697;SDS011;11010;49.548;11.926;2022-08-21T03:28:10;9.25;;;2.80;;
21697;SDS011;11010;49.548;11.926;2022-08-21T03:30:43;7.57;;;2.50;;
21697;SDS011;11010;49.548;11.926;2022-08-21T03:33:11;8.52;;;2.70;;
21697;SDS011;11010;49.548;11.926;2022-08-21T03:35:44;9.05;;;3.33;;
21697;SDS011;11010;49.548;11.926;2022-08-21T03:38:12;8.55;;;2.67;;
21697;SDS011;11010;49.548;11.926;2022-08-21T03:40:40;8.48;;;2.58;;
21697;SDS011;11010;49.548;11.926;2022-08-21T03:43:08;8.57;;;2.58;;
21697;SDS011;11010;49.548;11.926;2022-08-21T03:45:36;7.72;;;2.80;;
21697;SDS011;11010;49.548;11.926;2022-08-21T03:48:04;7.63;;;2.50;;
21697;SDS011;11010;49.548;11.926;2022-08-21T03:50:34;7.88;;;2.60;;
21697;SDS011;11010;49.548;11.926;2022-08-21T03:53:10;7.90;;;2.60;;
21697;SDS011;11010;49.548;11.926;2022-08-21T03:55:46;7.32;;;2.70;;
21697;SDS011;11010;49.548;11.926;2022-08-21T03:58:14;8.55;;;3.58;;
21697;SDS011;11010;49.548;11.926;2022-08-21T04:00:46;8.50;;;2.85;;
21697;SDS011;11010;49.548;11.926;2022-08-21T04:03:14;7.93;;;2.88;;
21697;SDS011;11010;49.548;11.926;2022-08-21T04:05:42;8.77;;;2.75;;
21697;SDS011;11010;49.548;11.926;2022-08-21T04:08:12;8.65;;;3.20;;
21697;SDS011;11010;49.548;11.926;2022-08-21T04:10:40;8.38;;;3.10;;
21697;SDS011;11010;49.548;11.926;2022-08-21T04:13:07;8.35;;;2.97;;
21697;SDS011;11010;49.548;11.926;2022-08-21T04:15:35;7.85;;;2.90;;
21697;SDS011;11010;49.548;11.926;2022-08-21T04:18:03;8.05;;;2.75;;
21697;SDS011;11010;49.548;11.926;2022-08-21T04:20:31;8.07;;;2.75;;
21697;SDS011;11010;49.548;11.926;2022-08-21T04:22:58;9.60;;;3.22;;
21697;SDS011;11010;49.548;11.926;2022-08-21T04:25:26;9.02;;;3.28;;
21697;SDS011;11010;49.548;11.926;2022-08-21T04:27:54;8.77;;;3.28;;
21697;SDS011;11010;49.548;11.926;2022-08-21T04:30:21;8.63;;;3.42;;
21697;SDS011;11010;49.548;11.926;2022-08-21T04:32:54;8.73;;;3.30;;
21697;SDS011;11010;49.548;11.926;2022-08-21T04:35:22;8.55;;;3.00;;
21697;SDS011;11010;49.548;11.926;2022-08-21T04:37:50;9.23;;;3.50;;
21697;SDS011;11010;49.548;11.926;2022-08-21T04:40:19;8.57;;;2.80;;
21697;SDS011;11010;49.548;11.926;2022-08-21T04:42:48;9.75;;;3.00;;
21697;SDS011;11010;49.548;11.926;2022-08-21T04:45:20;10.98;;;3.58;;
21697;SDS011;11010;49.548;11.926;2022-08-21T04:47:49;9.55;;;3.60;;
21697;SDS011;11010;49.548;11.926;2022-08-21T04:50:19;9.55;;;4.03;;
21697;SDS011;11010;49.548;11.926;2022-08-21T04:53:02;11.05;;;4.13;;
21697;SDS011;11010;49.548;11.926;2022-08-21T04:55:29;9.18;;;3.65;;
21697;SDS011;11010;49.548;11.926;2022-08-21T04:57:57;10.55;;;4.45;;
21697;SDS011;11010;49.548;11.926;2022-08-21T05:00:25;11.10;;;4.82;;
21697;SDS011;11010;49.548;11.926;2022-08-21T05:02:52;11.18;;;4.93;;
21697;SDS011;11010;49.548;11.926;2022-08-21T05:05:23;12.38;;;5.55;;
21697;SDS011;11010;49.548;11.926;2022-08-21T05:07:51;13.40;;;6.65;;
21697;SDS011;11010;49.548;11.926;2022-08-21T05:10:19;10.65;;;4.75;;
21697;SDS011;11010;49.548;11.926;2022-08-21T05:12:47;12.48;;;6.15;;
21697;SDS011;11010;49.548;11.926;2022-08-21T05:15:14;12.15;;;5.45;;
21697;SDS011;11010;49.548;11.926;2022-08-21T05:17:43;12.68;;;6.07;;
21697;SDS011;11010;49.548;11.926;2022-08-21T05:20:24;11.52;;;5.25;;
21697;SDS011;11010;49.548;11.926;2022-08-21T05:22:51;13.55;;;5.90;;
21697;SDS011;11010;49.548;11.926;2022-08-21T05:25:19;14.23;;;7.10;;
21697;SDS011;11010;49.548;11.926;2022-08-21T05:27:48;15.20;;;7.38;;
21697;SDS011;11010;49.548;11.926;2022-08-21T05:30:18;13.75;;;6.40;;
21697;SDS011;11010;49.548;11.926;2022-08-21T05:32:46;15.52;;;7.55;;
21697;SDS011;11010;49.548;11.926;2022-08-21T05:35:14;18.08;;;9.20;;
21697;SDS011;11010;49.548;11.926;2022-08-21T05:37:42;17.52;;;8.90;;
21697;SDS011;11010;49.548;11.926;2022-08-21T05:40:09;15.48;;;7.35;;
21697;SDS011;11010;49.548;11.926;2022-08-21T05:42:52;14.52;;;5.95;;
21697;SDS011;11010;49.548;11.926;2022-08-21T05:45:22;15.48;;;7.40;;
21697;SDS011;11010;49.548;11.926;2022-08-21T05:48:14;18.40;;;9.10;;
21697;SDS011;11010;49.548;11.926;2022-08-21T05:50:42;16.27;;;8.05;;
21697;SDS011;11010;49.548;11.926;2022-08-21T05:53:10;16.33;;;7.78;;
21697;SDS011;11010;49.548;11.926;2022-08-21T05:55:38;14.48;;;6.30;;
21697;SDS011;11010;49.548;11.926;2022-08-21T05:58:15;16.63;;;8.07;;
21697;SDS011;11010;49.548;11.926;2022-08-21T06:00:43;20.13;;;10.27;;
21697;SDS011;11010;49.548;11.926;2022-08-21T06:03:11;15.30;;;7.03;;
21697;SDS011;11010;49.548;11.926;2022-08-21T06:05:39;16.92;;;7.93;;
21697;SDS011;11010;49.548;11.926;2022-08-21T06:08:07;20.02;;;9.98;;
21697;SDS011;11010;49.548;11.926;2022-08-21T06:10:34;19.55;;;9.93;;
21697;SDS011;11010;49.548;11.926;2022-08-21T06:13:02;14.70;;;7.30;;
21697;SDS011;11010;49.548;11.926;2022-08-21T06:15:30;16.70;;;8.38;;
21697;SDS011;11010;49.548;11.926;2022-08-21T06:17:57;18.10;;;8.10;;
21697;SDS011;11010;49.548;11.926;2022-08-21T06:20:25;21.33;;;11.07;;
21697;SDS011;11010;49.548;11.926;2022-08-21T06:22:53;23.60;;;11.77;;
21697;SDS011;11010;49.548;11.926;2022-08-21T06:25:20;19.85;;;9.18;;
21697;SDS011;11010;49.548;11.926;2022-08-21T06:27:49;20.33;;;9.68;;
21697;SDS011;11010;49.548;11.926;2022-08-21T06:30:17;21.38;;;10.25;;
21697;SDS011;11010;49.548;11.926;2022-08-21T06:32:45;22.52;;;11.32;;
21697;SDS011;11010;49.548;11.926;2022-08-21T06:35:12;21.77;;;11.00;;
21697;SDS011;11010;49.548;11.926;2022-08-21T06:37:39;18.55;;;9.10;;
21697;SDS011;11010;49.548;11.926;2022-08-21T06:40:07;22.38;;;11.65;;
21697;SDS011;11010;49.548;11.926;2022-08-21T06:42:38;21.85;;;11.73;;
21697;SDS011;11010;49.548;11.926;2022-08-21T06:45:08;21.33;;;11.02;;
21697;SDS011;11010;49.548;11.926;2022-08-21T06:47:36;22.08;;;12.25;;
21697;SDS011;11010;49.548;11.926;2022-08-21T06:50:03;20.10;;;9.63;;
21697;SDS011;11010;49.548;11.926;2022-08-21T06:52:37;22.75;;;10.75;;
21697;SDS011;11010;49.548;11.926;2022-08-21T06:55:05;23.88;;;11.68;;
21697;SDS011;11010;49.548;11.926;2022-08-21T06:57:33;21.15;;;10.50;;
21697;SDS011;11010;49.548;11.926;2022-08-21T07:00:02;20.48;;;10.48;;
21697;SDS011;11010;49.548;11.926;2022-08-21T07:02:31;21.13;;;11.52;;
21697;SDS011;11010;49.548;11.926;2022-08-21T07:05:00;23.40;;;10.50;;
21697;SDS011;11010;49.548;11.926;2022-08-21T07:07:44;21.05;;;10.25;;
21697;SDS011;11010;49.548;11.926;2022-08-21T07:10:12;19.48;;;9.70;;
21697;SDS011;11010;49.548;11.926;2022-08-21T07:12:48;20.58;;;10.95;;
21697;SDS011;11010;49.548;11.926;2022-08-21T07:15:26;19.67;;;10.23;;
21697;SDS011;11010;49.548;11.926;2022-08-21T07:17:55;22.27;;;10.98;;
21697;SDS011;11010;49.548;11.926;2022-08-21T07:20:23;21.33;;;11.13;;
21697;SDS011;11010;49.548;11.926;2022-08-21T07:22:51;21.25;;;10.20;;
21697;SDS011;11010;49.548;11.926;2022-08-21T07:25:18;21.83;;;11.38;;
21697;SDS011;11010;49.548;11.926;2022-08-21T07:27:46;22.65;;;10.65;;
21697;SDS011;11010;49.548;11.926;2022-08-21T07:30:13;19.20;;;10.43;;
21697;SDS011;11010;49.548;11.926;2022-08-21T07:32:41;20.80;;;10.38;;
21697;SDS011;11010;49.548;11.926;2022-08-21T07:35:08;22.45;;;11.27;;
21697;SDS011;11010;49.548;11.926;2022-08-21T07:37:36;23.70;;;12.68;;
21697;SDS011;11010;49.548;11.926;2022-08-21T07:40:04;22.17;;;11.43;;
21697;SDS011;11010;49.548;11.926;2022-08-21T07:42:32;22.67;;;11.63;;
21697;SDS011;11010;49.548;11.926;2022-08-21T07:44:59;21.55;;;11.35;;
21697;SDS011;11010;49.548;11.926;2022-08-21T07:47:27;19.67;;;10.52;;
21697;SDS011;11010;49.548;11.926;2022-08-21T07:50:08;20.77;;;11.82;;
21697;SDS011;11010;49.548;11.926;2022-08-21T07:52:35;19.60;;;10.02;;
21697;SDS011;11010;49.548;11.926;2022-08-21T07:55:03;22.05;;;11.35;;
21697;SDS011;11010;49.548;11.926;2022-08-21T07:57:32;24.65;;;11.73;;
21697;SDS011;11010;49.548;11.926;2022-08-21T08:00:00;23.20;;;12.15;;
21697;SDS011;11010;49.548;11.926;2022-08-21T08:02:37;24.80;;;13.18;;
21697;SDS011;11010;49.548;11.926;2022-08-21T08:05:06;21.38;;;12.07;;
21697;SDS011;11010;49.548;11.926;2022-08-21T08:07:34;23.80;;;12.88;;
21697;SDS011;11010;49.548;11.926;2022-08-21T08:10:03;20.98;;;10.73;;
21697;SDS011;11010;49.548;11.926;2022-08-21T08:12:31;20.88;;;11.40;;
21697;SDS011;11010;49.548;11.926;2022-08-21T08:14:59;22.95;;;12.05;;
21697;SDS011;11010;49.548;11.926;2022-08-21T08:17:27;19.40;;;10.73;;
21697;SDS011;11010;49.548;11.926;2022-08-21T08:19:54;24.65;;;12.85;;
21697;SDS011;11010;49.548;11.926;2022-08-21T08:22:22;17.42;;;9.18;;
21697;SDS011;11010;49.548;11.926;2022-08-21T08:24:51;22.65;;;12.20;;
21697;SDS011;11010;49.548;11.926;2022-08-21T08:27:19;23.20;;;12.30;;
21697;SDS011;11010;49.548;11.926;2022-08-21T08:29:46;20.40;;;9.80;;
21697;SDS011;11010;49.548;11.926;2022-08-21T08:32:14;23.48;;;12.35;;
21697;SDS011;11010;49.548;11.926;2022-08-21T08:34:42;20.27;;;11.13;;
21697;SDS011;11010;49.548;11.926;2022-08-21T08:37:09;22.90;;;12.07;;
21697;SDS011;11010;49.548;11.926;2022-08-21T08:39:37;23.83;;;12.43;;
21697;SDS011;11010;49.548;11.926;2022-08-21T08:42:09;18.92;;;10.23;;
21697;SDS011;11010;49.548;11.926;2022-08-21T08:45:00;16.73;;;8.82;;
21697;SDS011;11010;49.548;11.926;2022-08-21T08:47:30;18.67;;;10.05;;
21697;SDS011;11010;49.548;11.926;2022-08-21T08:50:02;21.15;;;11.00;;
21697;SDS011;11010;49.548;11.926;2022-08-21T08:52:31;18.92;;;10.43;;
21697;SDS011;11010;49.548;11.926;2022-08-21T08:57:27;20.65;;;10.85;;
21697;SDS011;11010;49.548;11.926;2022-08-21T08:59:58;17.42;;;9.52;;
21697;SDS011;11010;49.548;11.926;2022-08-21T09:02:27;19.25;;;10.25;;
21697;SDS011;11010;49.548;11.926;2022-08-21T09:04:55;19.33;;;10.35;;
21697;SDS011;11010;49.548;11.926;2022-08-21T09:10:25;22.90;;;12.35;;
21697;SDS011;11010;49.548;11.926;2022-08-21T09:23:44;24.42;;;13.10;;
21697;SDS011;11010;49.548;11.926;2022-08-21T09:26:15;21.45;;;11.15;;
21697;SDS011;11010;49.548;11.926;2022-08-21T09:28:42;21.27;;;11.18;;
21697;SDS011;11010;49.548;11.926;2022-08-21T09:33:43;23.45;;;13.23;;
21697;SDS011;11010;49.548;11.926;2022-08-21T09:36:11;24.02;;;12.60;;
21697;SDS011;11010;49.548;11.926;2022-08-21T09:38:38;22.75;;;11.65;;
21697;SDS011;11010;49.548;11.926;2022-08-21T09:41:07;25.33;;;13.98;;
21697;SDS011;11010;49.548;11.926;2022-08-21T09:43:35;26.90;;;13.20;;
21697;SDS011;11010;49.548;11.926;2022-08-21T09:48:38;22.52;;;12.40;;
21697;SDS011;11010;49.548;11.926;2022-08-21T09:51:07;23.58;;;12.20;;
21697;SDS011;11010;49.548;11.926;2022-08-21T09:53:37;21.50;;;11.57;;
21697;SDS011;11010;49.548;11.926;2022-08-21T09:56:19;22.67;;;11.90;;
21697;SDS011;11010;49.548;11.926;2022-08-21T09:59:17;25.65;;;12.55;;
21697;SDS011;11010;49.548;11.926;2022-08-21T10:01:46;23.15;;;12.63;;
21697;SDS011;11010;49.548;11.926;2022-08-21T10:04:14;24.65;;;12.95;;
21697;SDS011;11010;49.548;11.926;2022-08-21T10:06:42;22.77;;;11.57;;
21697;SDS011;11010;49.548;11.926;2022-08-21T10:09:11;21.35;;;11.65;;
21697;SDS011;11010;49.548;11.926;2022-08-21T10:12:06;22.42;;;12.15;;
21697;SDS011;11010;49.548;11.926;2022-08-21T10:14:51;23.38;;;12.65;;
21697;SDS011;11010;49.548;11.926;2022-08-21T10:17:24;21.45;;;11.52;;
21697;SDS011;11010;49.548;11.926;2022-08-21T10:20:11;21.10;;;10.98;;
21697;SDS011;11010;49.548;11.926;2022-08-21T10:27:44;21.88;;;12.00;;
21697;SDS011;11010;49.548;11.926;2022-08-21T10:35:24;21.40;;;11.38;;
21697;SDS011;11010;49.548;11.926;2022-08-21T10:40:25;19.58;;;10.68;;
21697;SDS011;11010;49.548;11.926;2022-08-21T10:48:33;19.33;;;10.38;;
21697;SDS011;11010;49.548;11.926;2022-08-21T10:54:37;15.82;;;8.65;;
21697;SDS011;11010;49.548;11.926;2022-08-21T10:56:33;17.08;;;8.93;;
21697;SDS011;11010;49.548;11.926;2022-08-21T10:59:04;15.30;;;8.05;;
21697;SDS011;11010;49.548;11.926;2022-08-21T11:04:13;14.38;;;8.10;;
21697;SDS011;11010;49.548;11.926;2022-08-21T11:06:47;14.82;;;7.88;;
21697;SDS011;11010;49.548;11.926;2022-08-21T11:09:21;14.95;;;7.68;;
21697;SDS011;11010;49.548;11.926;2022-08-21T11:11:59;14.55;;;7.18;;
21697;SDS011;11010;49.548;11.926;2022-08-21T11:14:44;13.60;;;6.72;;
21697;SDS011;11010;49.548;11.926;2022-08-21T11:17:16;11.95;;;6.35;;
21697;SDS011;11010;49.548;11.926;2022-08-21T11:19:50;14.82;;;7.57;;
21697;SDS011;11010;49.548;11.926;2022-08-21T11:22:27;16.23;;;8.00;;
21697;SDS011;11010;49.548;11.926;2022-08-21T11:25:03;13.65;;;6.90;;
21697;SDS011;11010;49.548;11.926;2022-08-21T11:27:38;13.50;;;6.63;;
21697;SDS011;11010;49.548;11.926;2022-08-21T11:30:07;14.00;;;6.72;;
21697;SDS011;11010;49.548;11.926;2022-08-21T11:45:53;13.07;;;7.07;;
21697;SDS011;11010;49.548;11.926;2022-08-21T11:50:51;11.60;;;5.88;;
21697;SDS011;11010;49.548;11.926;2022-08-21T11:55:55;11.25;;;5.47;;
21697;SDS011;11010;49.548;11.926;2022-08-21T11:58:33;13.45;;;6.43;;
21697;SDS011;11010;49.548;11.926;2022-08-21T12:01:11;11.70;;;6.38;;
21697;SDS011;11010;49.548;11.926;2022-08-21T12:03:40;12.32;;;6.03;;
21697;SDS011;11010;49.548;11.926;2022-08-21T12:06:10;12.15;;;6.07;;
21697;SDS011;11010;49.548;11.926;2022-08-21T12:08:40;10.88;;;5.63;;
21697;SDS011;11010;49.548;11.926;2022-08-21T12:11:09;11.77;;;5.70;;
21697;SDS011;11010;49.548;11.926;2022-08-21T12:13:39;10.55;;;5.22;;
21697;SDS011;11010;49.548;11.926;2022-08-21T12:18:36;11.77;;;5.40;;
21697;SDS011;11010;49.548;11.926;2022-08-21T12:21:20;10.60;;;4.72;;
21697;SDS011;11010;49.548;11.926;2022-08-21T12:23:57;11.30;;;5.32;;
21697;SDS011;11010;49.548;11.926;2022-08-21T12:26:31;11.20;;;5.40;;
21697;SDS011;11010;49.548;11.926;2022-08-21T12:29:03;10.30;;;4.82;;
21697;SDS011;11010;49.548;11.926;2022-08-21T12:31:32;11.05;;;5.00;;
21697;SDS011;11010;49.548;11.926;2022-08-21T12:34:00;8.55;;;3.83;;
21697;SDS011;11010;49.548;11.926;2022-08-21T12:36:39;9.43;;;4.68;;
21697;SDS011;11010;49.548;11.926;2022-08-21T12:39:11;12.30;;;5.10;;
21697;SDS011;11010;49.548;11.926;2022-08-21T12:41:50;9.23;;;4.30;;
21697;SDS011;11010;49.548;11.926;2022-08-21T12:44:22;9.48;;;4.53;;
21697;SDS011;11010;49.548;11.926;2022-08-21T12:46:56;10.20;;;4.03;;
21697;SDS011;11010;49.548;11.926;2022-08-21T12:52:01;8.98;;;3.95;;
21697;SDS011;11010;49.548;11.926;2022-08-21T12:54:30;9.20;;;4.30;;
21697;SDS011;11010;49.548;11.926;2022-08-21T12:56:59;9.60;;;4.07;;
21697;SDS011;11010;49.548;11.926;2022-08-21T12:59:27;8.70;;;3.60;;
21697;SDS011;11010;49.548;11.926;2022-08-21T13:01:55;8.80;;;3.53;;
21697;SDS011;11010;49.548;11.926;2022-08-21T13:04:32;9.77;;;3.90;;
21697;SDS011;11010;49.548;11.926;2022-08-21T13:07:01;8.25;;;3.42;;
21697;SDS011;11010;49.548;11.926;2022-08-21T13:09:33;9.00;;;4.10;;
21697;SDS011;11010;49.548;11.926;2022-08-21T13:12:01;7.60;;;3.10;;
21697;SDS011;11010;49.548;11.926;2022-08-21T13:14:33;8.20;;;3.38;;
21697;SDS011;11010;49.548;11.926;2022-08-21T13:17:11;8.23;;;3.45;;
21697;SDS011;11010;49.548;11.926;2022-08-21T13:20:04;8.73;;;3.30;;
21697;SDS011;11010;49.548;11.926;2022-08-21T13:22:32;8.10;;;3.40;;
21697;SDS011;11010;49.548;11.926;2022-08-21T13:25:11;8.60;;;2.90;;
21697;SDS011;11010;49.548;11.926;2022-08-21T13:27:39;8.15;;;3.53;;
21697;SDS011;11010;49.548;11.926;2022-08-21T13:30:09;8.25;;;3.10;;
21697;SDS011;11010;49.548;11.926;2022-08-21T13:32:42;8.43;;;3.35;;
21697;SDS011;11010;49.548;11.926;2022-08-21T13:35:15;7.32;;;3.00;;
21697;SDS011;11010;49.548;11.926;2022-08-21T13:37:43;7.55;;;3.05;;
21697;SDS011;11010;49.548;11.926;2022-08-21T13:40:15;8.60;;;3.20;;
21697;SDS011;11010;49.548;11.926;2022-08-21T13:42:44;7.95;;;3.15;;
21697;SDS011;11010;49.548;11.926;2022-08-21T13:45:13;8.50;;;3.20;;
21697;SDS011;11010;49.548;11.926;2022-08-21T13:47:42;10.57;;;3.50;;
21697;SDS011;11010;49.548;11.926;2022-08-21T13:50:11;7.50;;;3.00;;
21697;SDS011;11010;49.548;11.926;2022-08-21T13:52:48;8.52;;;3.45;;
21697;SDS011;11010;49.548;11.926;2022-08-21T13:55:17;8.18;;;3.00;;
21697;SDS011;11010;49.548;11.926;2022-08-21T13:57:45;7.35;;;3.08;;
21697;SDS011;11010;49.548;11.926;2022-08-21T14:02:41;8.77;;;3.10;;
21697;SDS011;11010;49.548;11.926;2022-08-21T14:05:31;8.75;;;3.15;;
21697;SDS011;11010;49.548;11.926;2022-08-21T14:07:59;7.82;;;2.90;;
21697;SDS011;11010;49.548;11.926;2022-08-21T14:10:28;7.90;;;2.92;;
21697;SDS011;11010;49.548;11.926;2022-08-21T14:12:58;8.02;;;2.90;;
21697;SDS011;11010;49.548;11.926;2022-08-21T14:15:29;7.57;;;2.55;;
21697;SDS011;11010;49.548;11.926;2022-08-21T14:18:16;7.55;;;2.55;;
21697;SDS011;11010;49.548;11.926;2022-08-21T14:20:44;7.70;;;2.92;;
21697;SDS011;11010;49.548;11.926;2022-08-21T14:23:23;7.82;;;2.60;;
21697;SDS011;11010;49.548;11.926;2022-08-21T14:25:51;7.38;;;2.80;;
21697;SDS011;11010;49.548;11.926;2022-08-21T14:28:30;8.48;;;2.60;;
21697;SDS011;11010;49.548;11.926;2022-08-21T14:31:10;7.32;;;2.67;;
21697;SDS011;11010;49.548;11.926;2022-08-21T14:33:38;7.85;;;2.80;;
21697;SDS011;11010;49.548;11.926;2022-08-21T14:36:06;7.50;;;2.67;;
21697;SDS011;11010;49.548;11.926;2022-08-21T14:38:35;7.65;;;2.72;;
21697;SDS011;11010;49.548;11.926;2022-08-21T14:41:04;7.30;;;2.63;;
21697;SDS011;11010;49.548;11.926;2022-08-21T14:43:35;7.72;;;2.85;;
21697;SDS011;11010;49.548;11.926;2022-08-21T14:46:03;7.63;;;2.88;;
21697;SDS011;11010;49.548;11.926;2022-08-21T14:48:30;7.00;;;2.45;;
21697;SDS011;11010;49.548;11.926;2022-08-21T14:50:58;7.60;;;2.72;;
21697;SDS011;11010;49.548;11.926;2022-08-21T14:53:26;8.98;;;2.88;;
21697;SDS011;11010;49.548;11.926;2022-08-21T14:55:53;7.18;;;2.50;;
21697;SDS011;11010;49.548;11.926;2022-08-21T14:58:34;7.30;;;2.67;;
21697;SDS011;11010;49.548;11.926;2022-08-21T15:01:02;6.97;;;2.70;;
21697;SDS011;11010;49.548;11.926;2022-08-21T15:03:32;7.35;;;2.80;;
21697;SDS011;11010;49.548;11.926;2022-08-21T15:05:59;7.68;;;2.47;;
21697;SDS011;11010;49.548;11.926;2022-08-21T15:08:27;8.13;;;3.05;;
21697;SDS011;11010;49.548;11.926;2022-08-21T15:10:55;8.18;;;2.75;;
21697;SDS011;11010;49.548;11.926;2022-08-21T15:13:38;8.57;;;2.60;;
21697;SDS011;11010;49.548;11.926;2022-08-21T15:16:07;7.47;;;2.80;;
21697;SDS011;11010;49.548;11.926;2022-08-21T15:18:35;7.05;;;2.47;;
21697;SDS011;11010;49.548;11.926;2022-08-21T15:21:03;7.22;;;2.60;;
21697;SDS011;11010;49.548;11.926;2022-08-21T15:23:30;7.97;;;2.85;;
21697;SDS011;11010;49.548;11.926;2022-08-21T15:25:58;7.10;;;2.72;;
21697;SDS011;11010;49.548;11.926;2022-08-21T15:28:27;7.18;;;2.50;;
21697;SDS011;11010;49.548;11.926;2022-08-21T15:30:58;6.75;;;2.50;;
21697;SDS011;11010;49.548;11.926;2022-08-21T15:33:26;7.03;;;2.65;;
21697;SDS011;11010;49.548;11.926;2022-08-21T15:35:55;8.30;;;2.92;;
21697;SDS011;11010;49.548;11.926;2022-08-21T15:38:22;8.18;;;2.75;;
21697;SDS011;11010;49.548;11.926;2022-08-21T15:40:51;7.20;;;2.40;;
21697;SDS011;11010;49.548;11.926;2022-08-21T15:43:24;7.93;;;2.70;;
21697;SDS011;11010;49.548;11.926;2022-08-21T15:45:57;7.35;;;2.70;;
21697;SDS011;11010;49.548;11.926;2022-08-21T15:48:25;7.03;;;2.38;;
21697;SDS011;11010;49.548;11.926;2022-08-21T15:50:52;7.75;;;2.90;;
21697;SDS011;11010;49.548;11.926;2022-08-21T15:53:20;7.82;;;2.50;;
21697;SDS011;11010;49.548;11.926;2022-08-21T15:55:47;8.13;;;2.55;;
21697;SDS011;11010;49.548;11.926;2022-08-21T15:58:15;7.20;;;2.60;;